createdAt,value
2022-11-30T00:00:27.823Z,78.10
2022-11-30T00:01:27.807Z,80.40
2022-11-30T00:02:27.917Z,78.40
2022-11-30T00:03:27.806Z,83.10
2022-11-30T00:04:27.824Z,77.70
2022-11-30T00:05:27.776Z,79.90
2022-11-30T00:06:27.763Z,84.80
2022-11-30T00:07:27.816Z,88.50
2022-11-30T00:08:27.746Z,79.90
2022-11-30T00:09:27.726Z,78.10
2022-11-30T00:10:27.726Z,81.00
2022-11-30T00:11:27.704Z,79.30
2022-11-30T00:12:27.687Z,74.10
2022-11-30T00:13:27.684Z,73.90
2022-11-30T00:14:27.682Z,74.30
2022-11-30T00:15:27.670Z,78.50
2022-11-30T00:16:27.753Z,76.30
2022-11-30T00:17:27.647Z,77.30
2022-11-30T00:18:27.627Z,72.00
2022-11-30T00:19:27.638Z,71.90
2022-11-30T00:20:27.608Z,71.70
2022-11-30T00:21:27.600Z,68.70
2022-11-30T00:22:27.597Z,73.60
2022-11-30T00:23:27.577Z,72.80
2022-11-30T00:24:27.558Z,70.30
2022-11-30T00:25:27.586Z,73.00
2022-11-30T00:26:27.538Z,69.50
2022-11-30T00:27:27.541Z,68.80
2022-11-30T00:28:27.540Z,75.10
2022-11-30T00:29:27.558Z,76.70
2022-11-30T00:30:27.541Z,69.80
2022-11-30T00:31:27.491Z,82.60
2022-11-30T00:32:27.479Z,75.60
2022-11-30T00:33:27.478Z,74.20
2022-11-30T00:34:27.462Z,81.80
2022-11-30T00:35:27.458Z,76.10
2022-11-30T00:36:27.432Z,80.00
2022-11-30T00:37:27.426Z,84.70
2022-11-30T00:38:27.410Z,84.10
2022-11-30T00:39:31.050Z,80.00
2022-11-30T00:40:28.391Z,82.20
2022-11-30T00:41:27.392Z,85.40
2022-11-30T00:42:27.360Z,81.90
2022-11-30T00:43:27.368Z,79.40
2022-11-30T00:44:27.342Z,78.90
2022-11-30T00:45:27.341Z,80.60
2022-11-30T00:46:27.369Z,89.30
2022-11-30T00:47:27.320Z,80.70
2022-11-30T00:48:27.302Z,86.90
2022-11-30T00:49:27.294Z,80.80
2022-11-30T00:50:27.301Z,85.10
2022-11-30T00:51:27.265Z,87.50
2022-11-30T00:52:27.263Z,86.20
2022-11-30T00:53:27.254Z,94.40
2022-11-30T00:54:27.236Z,89.80
2022-11-30T00:55:27.988Z,89.80
2022-11-30T00:56:27.221Z,96.30
2022-11-30T00:57:27.202Z,94.10
2022-11-30T00:58:27.212Z,93.40
2022-11-30T00:59:27.208Z,99.60
2022-11-30T01:00:27.182Z,99.40
2022-11-30T01:01:27.202Z,97.40
2022-11-30T01:02:27.215Z,104.00
2022-11-30T01:03:27.142Z,92.70
2022-11-30T01:04:27.147Z,87.70
2022-11-30T01:05:27.127Z,98.50
2022-11-30T01:06:27.115Z,97.10
2022-11-30T01:07:27.149Z,94.20
2022-11-30T01:08:27.094Z,96.70
2022-11-30T01:09:27.074Z,96.70
2022-11-30T01:10:27.081Z,99.20
2022-11-30T01:11:27.054Z,98.80
2022-11-30T01:12:27.045Z,104.00
2022-11-30T01:13:27.033Z,97.40
2022-11-30T01:14:27.027Z,102.90
2022-11-30T01:15:27.221Z,91.90
2022-11-30T01:16:27.007Z,103.60
2022-11-30T01:17:26.987Z,98.30
2022-11-30T01:18:26.985Z,103.40
2022-11-30T01:19:26.966Z,101.70
2022-11-30T01:20:26.990Z,98.10
2022-11-30T01:21:26.950Z,101.30
2022-11-30T01:22:26.939Z,98.90
2022-11-30T01:23:27.867Z,102.20
2022-11-30T01:24:26.916Z,108.90
2022-11-30T01:25:26.917Z,114.30
2022-11-30T01:26:26.896Z,106.80
2022-11-30T01:27:26.876Z,110.20
2022-11-30T01:28:26.877Z,110.80
2022-11-30T01:29:26.878Z,114.90
2022-11-30T01:30:26.867Z,106.40
2022-11-30T01:31:26.845Z,109.50
2022-11-30T01:32:26.837Z,106.50
2022-11-30T01:33:26.937Z,110.80
2022-11-30T01:34:26.812Z,107.50
2022-11-30T01:35:27.061Z,107.20
2022-11-30T01:36:26.802Z,105.00
2022-11-30T01:37:26.778Z,106.60
2022-11-30T01:38:26.769Z,105.70
2022-11-30T01:39:26.747Z,106.20
2022-11-30T01:40:26.792Z,110.30
2022-11-30T01:41:26.738Z,112.50
2022-11-30T01:42:26.719Z,112.70
2022-11-30T01:43:26.709Z,117.20
2022-11-30T01:44:26.709Z,118.50
2022-11-30T01:45:26.702Z,120.20
2022-11-30T01:46:26.711Z,123.10
2022-11-30T01:47:26.669Z,116.20
2022-11-30T01:48:26.660Z,119.60
2022-11-30T01:49:26.672Z,111.00
2022-11-30T01:50:26.664Z,125.70
2022-11-30T01:51:26.622Z,124.40
2022-11-30T01:52:26.623Z,128.80
2022-11-30T01:53:26.619Z,133.50
2022-11-30T01:54:26.603Z,131.80
2022-11-30T01:55:26.600Z,129.00
2022-11-30T01:56:26.607Z,128.60
2022-11-30T01:57:26.562Z,131.50
2022-11-30T01:58:26.552Z,136.10
2022-11-30T01:59:26.591Z,139.50
2022-11-30T02:00:26.534Z,139.60
2022-11-30T02:01:26.599Z,142.40
2022-11-30T02:02:26.630Z,146.00
2022-11-30T02:03:26.491Z,148.00
2022-11-30T02:04:26.492Z,150.80
2022-11-30T02:05:26.504Z,158.70
2022-11-30T02:06:26.470Z,157.00
2022-11-30T02:07:26.562Z,168.80
2022-11-30T02:08:26.586Z,158.00
2022-11-30T02:09:26.433Z,163.00
2022-11-30T02:10:26.442Z,166.20
2022-11-30T02:11:26.445Z,159.60
2022-11-30T02:12:26.403Z,162.40
2022-11-30T02:13:26.383Z,145.50
2022-11-30T02:14:26.388Z,169.80
2022-11-30T02:15:26.439Z,164.50
2022-11-30T02:16:26.368Z,146.80
2022-11-30T02:17:26.351Z,160.50
2022-11-30T02:18:26.335Z,152.00
2022-11-30T02:19:26.324Z,155.40
2022-11-30T02:20:26.325Z,164.80
2022-11-30T02:21:26.304Z,167.70
2022-11-30T02:22:26.306Z,153.60
2022-11-30T02:23:26.274Z,143.20
2022-11-30T02:24:26.277Z,152.90
2022-11-30T02:25:26.277Z,152.50
2022-11-30T02:26:26.281Z,153.10
2022-11-30T02:27:26.246Z,162.90
2022-11-30T02:28:26.235Z,142.80
2022-11-30T02:29:26.223Z,149.10
2022-11-30T02:30:26.235Z,150.80
2022-11-30T02:31:26.238Z,151.40
2022-11-30T02:32:26.245Z,149.50
2022-11-30T02:33:26.175Z,149.60
2022-11-30T02:34:26.174Z,146.30
2022-11-30T02:35:26.168Z,149.40
2022-11-30T02:36:26.137Z,149.40
2022-11-30T02:37:26.136Z,146.50
2022-11-30T02:38:26.128Z,139.90
2022-11-30T02:39:26.117Z,151.40
2022-11-30T02:40:26.106Z,158.00
2022-11-30T02:41:26.107Z,150.70
2022-11-30T02:42:26.145Z,147.80
2022-11-30T02:43:26.079Z,145.60
2022-11-30T02:44:26.255Z,158.10
2022-11-30T02:45:26.057Z,156.60
2022-11-30T02:46:26.090Z,154.10
2022-11-30T02:47:26.046Z,150.20
2022-11-30T02:48:26.009Z,149.00
2022-11-30T02:49:26.009Z,148.40
2022-11-30T02:50:26.005Z,152.20
2022-11-30T02:51:25.989Z,144.60
2022-11-30T02:52:26.010Z,152.70
2022-11-30T02:53:25.960Z,155.00
2022-11-30T02:54:25.953Z,145.20
2022-11-30T02:55:25.952Z,162.20
2022-11-30T02:56:25.957Z,145.20
2022-11-30T02:57:25.929Z,158.50
2022-11-30T02:58:25.918Z,146.70
2022-11-30T02:59:25.910Z,166.90
2022-11-30T03:00:25.883Z,162.40
2022-11-30T03:01:26.012Z,157.80
2022-11-30T03:02:25.871Z,159.80
2022-11-30T03:03:25.860Z,169.70
2022-11-30T03:04:25.856Z,159.30
2022-11-30T03:05:25.852Z,169.10
2022-11-30T03:06:25.829Z,158.90
2022-11-30T03:07:25.877Z,156.20
2022-11-30T03:08:25.801Z,160.30
2022-11-30T03:09:25.790Z,154.70
2022-11-30T03:10:25.774Z,153.30
2022-11-30T03:11:25.792Z,161.70
2022-11-30T03:12:25.758Z,159.10
2022-11-30T03:13:25.752Z,162.50
2022-11-30T03:14:25.761Z,157.00
2022-11-30T03:15:25.722Z,157.70
2022-11-30T03:16:25.739Z,158.80
2022-11-30T03:17:25.701Z,159.20
2022-11-30T03:18:25.693Z,149.80
2022-11-30T03:19:25.693Z,154.90
2022-11-30T03:20:25.674Z,172.50
2022-11-30T03:21:25.672Z,170.70
2022-11-30T03:22:25.666Z,165.30
2022-11-30T03:23:25.644Z,167.00
2022-11-30T03:24:25.632Z,160.60
2022-11-30T03:25:25.633Z,152.70
2022-11-30T03:26:25.635Z,149.30
2022-11-30T03:27:25.604Z,159.70
2022-11-30T03:28:25.606Z,155.90
2022-11-30T03:29:25.586Z,162.00
2022-11-30T03:30:25.566Z,152.60
2022-11-30T03:31:25.632Z,163.50
2022-11-30T03:32:25.545Z,158.20
2022-11-30T03:33:25.554Z,169.10
2022-11-30T03:34:25.529Z,157.90
2022-11-30T03:35:25.527Z,154.70
2022-11-30T03:36:25.516Z,155.30
2022-11-30T03:37:25.492Z,162.60
2022-11-30T03:38:25.486Z,155.40
2022-11-30T03:39:25.484Z,152.60
2022-11-30T03:40:25.465Z,146.60
2022-11-30T03:41:25.456Z,149.70
2022-11-30T03:42:25.448Z,145.10
2022-11-30T03:43:25.439Z,138.60
2022-11-30T03:44:25.429Z,161.60
2022-11-30T03:45:25.434Z,150.20
2022-11-30T03:46:25.442Z,144.50
2022-11-30T03:47:25.386Z,149.60
2022-11-30T03:48:25.376Z,150.80
2022-11-30T03:49:25.386Z,159.10
2022-11-30T03:50:25.385Z,146.60
2022-11-30T03:51:25.346Z,151.90
2022-11-30T03:52:25.345Z,143.80
2022-11-30T03:53:25.343Z,142.60
2022-11-30T03:54:25.306Z,142.10
2022-11-30T03:55:25.317Z,145.00
2022-11-30T03:56:25.412Z,133.00
2022-11-30T03:57:25.270Z,137.60
2022-11-30T03:58:25.267Z,132.60
2022-11-30T03:59:25.249Z,131.40
2022-11-30T04:00:25.249Z,137.10
2022-11-30T04:01:25.336Z,125.20
2022-11-30T04:02:25.282Z,128.80
2022-11-30T04:03:25.212Z,129.60
2022-11-30T04:04:25.208Z,122.90
2022-11-30T04:05:25.198Z,119.40
2022-11-30T04:06:25.560Z,127.70
2022-11-30T04:07:25.189Z,125.90
2022-11-30T04:08:25.159Z,131.10
2022-11-30T04:09:25.149Z,122.70
2022-11-30T04:10:25.168Z,119.50
2022-11-30T04:11:25.140Z,122.20
2022-11-30T04:12:25.109Z,132.40
2022-11-30T04:13:25.122Z,122.70
2022-11-30T04:14:25.113Z,119.70
2022-11-30T04:15:25.079Z,124.90
2022-11-30T04:16:25.143Z,118.00
2022-11-30T04:17:25.064Z,126.30
2022-11-30T04:18:25.260Z,121.20
2022-11-30T04:19:25.048Z,110.90
2022-11-30T04:20:25.051Z,118.90
2022-11-30T04:21:25.031Z,119.10
2022-11-30T04:22:25.022Z,117.20
2022-11-30T04:23:25.116Z,107.90
2022-11-30T04:24:24.999Z,115.90
2022-11-30T04:25:24.981Z,112.80
2022-11-30T04:26:24.997Z,116.70
2022-11-30T04:27:24.954Z,119.30
2022-11-30T04:28:24.942Z,110.20
2022-11-30T04:29:24.944Z,117.60
2022-11-30T04:30:24.942Z,112.20
2022-11-30T04:31:25.040Z,121.20
2022-11-30T04:32:24.902Z,114.60
2022-11-30T04:33:24.884Z,113.50
2022-11-30T04:34:24.904Z,113.80
2022-11-30T04:35:24.864Z,117.80
2022-11-30T04:36:24.873Z,111.50
2022-11-30T04:37:24.843Z,116.70
2022-11-30T04:38:24.946Z,114.90
2022-11-30T04:39:24.830Z,115.20
2022-11-30T04:40:24.830Z,108.30
2022-11-30T04:41:24.827Z,126.00
2022-11-30T04:42:24.793Z,121.40
2022-11-30T04:43:24.785Z,117.90
2022-11-30T04:44:24.795Z,123.10
2022-11-30T04:45:24.768Z,117.60
2022-11-30T04:46:24.938Z,127.50
2022-11-30T04:47:24.743Z,121.60
2022-11-30T04:48:24.736Z,128.50
2022-11-30T04:49:24.714Z,123.80
2022-11-30T04:50:24.718Z,131.00
2022-11-30T04:51:24.702Z,122.00
2022-11-30T04:52:24.686Z,123.30
2022-11-30T04:53:24.695Z,126.70
2022-11-30T04:54:24.664Z,132.60
2022-11-30T04:55:24.655Z,139.30
2022-11-30T04:56:24.736Z,127.90
2022-11-30T04:57:24.627Z,131.80
2022-11-30T04:58:24.625Z,134.80
2022-11-30T04:59:24.625Z,135.50
2022-11-30T05:00:24.865Z,153.60
2022-11-30T05:01:24.654Z,137.30
2022-11-30T05:02:24.578Z,144.00
2022-11-30T05:03:24.577Z,142.30
2022-11-30T05:04:24.714Z,135.10
2022-11-30T05:05:24.569Z,141.60
2022-11-30T05:06:24.547Z,155.30
2022-11-30T05:07:24.583Z,141.30
2022-11-30T05:08:24.522Z,151.00
2022-11-30T05:09:24.516Z,151.40
2022-11-30T05:10:24.489Z,160.10
2022-11-30T05:11:24.497Z,146.10
2022-11-30T05:12:24.484Z,143.90
2022-11-30T05:13:24.466Z,149.50
2022-11-30T05:14:24.466Z,169.20
2022-11-30T05:15:29.471Z,148.60
2022-11-30T05:16:24.510Z,153.50
2022-11-30T05:17:24.431Z,165.00
2022-11-30T05:18:24.399Z,161.60
2022-11-30T05:19:24.398Z,164.90
2022-11-30T05:20:24.389Z,175.10
2022-11-30T05:21:24.388Z,165.10
2022-11-30T05:22:24.370Z,159.80
2022-11-30T05:23:24.375Z,153.90
2022-11-30T05:24:24.356Z,159.50
2022-11-30T05:25:24.340Z,163.80
2022-11-30T05:26:24.351Z,183.00
2022-11-30T05:27:24.322Z,165.30
2022-11-30T05:28:24.300Z,173.10
2022-11-30T05:29:24.292Z,176.10
2022-11-30T05:30:24.274Z,203.90
2022-11-30T05:31:24.370Z,175.20
2022-11-30T05:32:24.253Z,215.10
2022-11-30T05:33:24.361Z,184.80
2022-11-30T05:34:24.319Z,191.30
2022-11-30T05:35:24.247Z,171.50
2022-11-30T05:36:24.220Z,184.30
2022-11-30T05:37:24.223Z,187.40
2022-11-30T05:38:24.192Z,188.20
2022-11-30T05:39:24.181Z,179.90
2022-11-30T05:40:24.172Z,178.10
2022-11-30T05:41:24.173Z,182.50
2022-11-30T05:42:24.150Z,198.70
2022-11-30T05:43:24.144Z,211.50
2022-11-30T05:44:24.178Z,195.20
2022-11-30T05:45:24.120Z,202.80
2022-11-30T05:46:24.140Z,184.30
2022-11-30T05:47:24.101Z,206.80
2022-11-30T05:48:24.142Z,186.50
2022-11-30T05:49:24.083Z,208.10
2022-11-30T05:50:24.065Z,203.90
2022-11-30T05:51:24.061Z,183.00
2022-11-30T05:52:24.054Z,219.30
2022-11-30T05:53:24.047Z,209.90
2022-11-30T05:54:24.056Z,232.90
2022-11-30T05:55:24.026Z,224.80
2022-11-30T05:56:24.002Z,216.20
2022-11-30T05:57:24.008Z,203.80
2022-11-30T05:58:23.975Z,199.30
2022-11-30T05:59:23.974Z,189.30
2022-11-30T06:00:23.964Z,191.60
2022-11-30T06:01:23.947Z,197.10
2022-11-30T06:02:28.154Z,192.50
2022-11-30T06:03:24.021Z,190.80
2022-11-30T06:04:23.961Z,194.10
2022-11-30T06:05:23.905Z,198.40
2022-11-30T06:06:23.888Z,195.40
2022-11-30T06:07:23.962Z,190.00
2022-11-30T06:08:23.875Z,193.40
2022-11-30T06:09:23.856Z,195.50
2022-11-30T06:10:23.846Z,171.20
2022-11-30T06:11:23.857Z,184.70
2022-11-30T06:12:23.846Z,181.20
2022-11-30T06:13:28.708Z,186.60
2022-11-30T06:14:24.826Z,171.30
2022-11-30T06:15:23.796Z,180.90
2022-11-30T06:16:23.872Z,164.30
2022-11-30T06:17:23.800Z,176.50
2022-11-30T06:18:23.767Z,166.60
2022-11-30T06:19:23.748Z,154.60
2022-11-30T06:20:23.758Z,160.30
2022-11-30T06:21:24.886Z,154.40
2022-11-30T06:22:23.750Z,159.50
2022-11-30T06:23:23.718Z,149.10
2022-11-30T06:24:23.708Z,151.80
2022-11-30T06:25:23.702Z,152.30
2022-11-30T06:26:23.680Z,149.40
2022-11-30T06:27:23.668Z,137.30
2022-11-30T06:28:23.695Z,128.50
2022-11-30T06:29:23.703Z,134.80
2022-11-30T06:30:23.680Z,137.90
2022-11-30T06:31:23.683Z,131.30
2022-11-30T06:32:23.661Z,127.50
2022-11-30T06:33:23.607Z,130.50
2022-11-30T06:34:23.624Z,131.60
2022-11-30T06:35:23.581Z,123.50
2022-11-30T06:36:23.608Z,124.50
2022-11-30T06:37:23.579Z,127.00
2022-11-30T06:38:23.573Z,124.20
2022-11-30T06:39:49.896Z,130.60
2022-11-30T06:40:24.532Z,130.40
2022-11-30T06:41:23.519Z,135.60
2022-11-30T06:42:23.524Z,146.10
2022-11-30T06:43:23.491Z,145.40
2022-11-30T06:44:23.497Z,153.00
2022-11-30T06:45:23.470Z,154.60
2022-11-30T06:46:23.489Z,148.70
2022-11-30T06:47:23.470Z,157.20
2022-11-30T06:48:23.441Z,171.60
2022-11-30T06:49:23.500Z,159.90
2022-11-30T06:50:23.431Z,159.30
2022-11-30T06:51:23.412Z,170.40
2022-11-30T06:52:23.441Z,167.30
2022-11-30T06:53:23.391Z,165.80
2022-11-30T06:54:23.374Z,165.90
2022-11-30T06:55:23.364Z,169.60
2022-11-30T06:56:23.350Z,171.20
2022-11-30T06:57:23.536Z,167.80
2022-11-30T06:58:23.341Z,171.40
2022-11-30T06:59:23.324Z,166.00
2022-11-30T07:00:23.332Z,179.80
2022-11-30T07:01:23.384Z,181.80
2022-11-30T07:02:23.313Z,170.00
2022-11-30T07:03:23.355Z,173.00
2022-11-30T07:04:23.333Z,179.40
2022-11-30T07:05:23.365Z,175.20
2022-11-30T07:06:23.243Z,177.70
2022-11-30T07:07:23.382Z,173.80
2022-11-30T07:08:23.265Z,176.40
2022-11-30T07:09:23.219Z,200.90
2022-11-30T07:10:23.234Z,180.30
2022-11-30T07:11:23.193Z,171.80
2022-11-30T07:12:23.184Z,181.50
2022-11-30T07:13:23.180Z,185.50
2022-11-30T07:14:23.164Z,180.80
2022-11-30T07:15:23.173Z,182.80
2022-11-30T07:16:23.182Z,180.40
2022-11-30T07:17:23.136Z,174.90
2022-11-30T07:18:25.865Z,183.20
2022-11-30T07:19:24.105Z,177.90
2022-11-30T07:20:23.124Z,186.10
2022-11-30T07:21:23.105Z,179.40
2022-11-30T07:22:23.086Z,165.90
2022-11-30T07:23:23.069Z,171.10
2022-11-30T07:24:23.066Z,171.00
2022-11-30T07:25:23.046Z,166.30
2022-11-30T07:26:23.045Z,173.70
2022-11-30T07:27:23.028Z,165.80
2022-11-30T07:28:23.030Z,164.20
2022-11-30T07:29:23.020Z,176.40
2022-11-30T07:30:22.997Z,160.90
2022-11-30T07:31:23.019Z,155.60
2022-11-30T07:32:22.978Z,155.50
2022-11-30T07:33:22.966Z,155.00
2022-11-30T07:34:22.970Z,155.70
2022-11-30T07:35:22.939Z,163.60
2022-11-30T07:36:22.928Z,153.10
2022-11-30T07:37:22.926Z,150.60
2022-11-30T07:38:22.917Z,152.10
2022-11-30T07:39:22.935Z,151.70
2022-11-30T07:40:22.890Z,146.10
2022-11-30T07:41:22.898Z,141.10
2022-11-30T07:42:22.887Z,144.60
2022-11-30T07:43:22.879Z,147.80
2022-11-30T07:44:22.864Z,137.00
2022-11-30T07:45:22.910Z,142.70
2022-11-30T07:46:22.887Z,130.30
2022-11-30T07:47:22.819Z,134.50
2022-11-30T07:48:22.822Z,139.50
2022-11-30T07:49:22.789Z,142.80
2022-11-30T07:50:22.802Z,136.00
2022-11-30T07:51:22.782Z,134.40
2022-11-30T07:52:22.770Z,128.70
2022-11-30T07:53:22.770Z,121.30
2022-11-30T07:54:23.118Z,125.80
2022-11-30T07:55:22.761Z,120.50
2022-11-30T07:56:22.714Z,115.40
2022-11-30T07:57:22.704Z,114.60
2022-11-30T07:58:22.712Z,111.90
2022-11-30T07:59:22.692Z,115.30
2022-11-30T08:00:22.674Z,111.50
2022-11-30T08:01:22.768Z,113.50
2022-11-30T08:02:22.793Z,108.60
2022-11-30T08:03:22.643Z,108.20
2022-11-30T08:04:22.668Z,104.20
2022-11-30T08:05:22.632Z,111.90
2022-11-30T08:06:22.623Z,106.30
2022-11-30T08:07:22.651Z,102.70
2022-11-30T08:08:22.634Z,101.90
2022-11-30T08:09:22.572Z,101.10
2022-11-30T08:10:22.582Z,108.60
2022-11-30T08:11:22.556Z,107.00
2022-11-30T08:12:22.544Z,100.20
2022-11-30T08:13:22.544Z,92.10
2022-11-30T08:14:22.536Z,92.40
2022-11-30T08:15:26.076Z,95.90
2022-11-30T08:16:23.622Z,96.20
2022-11-30T08:17:22.493Z,83.20
2022-11-30T08:18:22.503Z,97.70
2022-11-30T08:19:22.474Z,84.80
2022-11-30T08:20:22.466Z,83.10
2022-11-30T08:21:22.464Z,87.80
2022-11-30T08:22:22.436Z,86.10
2022-11-30T08:23:22.435Z,84.60
2022-11-30T08:24:22.443Z,84.30
2022-11-30T08:25:22.394Z,86.50
2022-11-30T08:26:22.455Z,83.70
2022-11-30T08:27:22.385Z,86.00
2022-11-30T08:28:22.385Z,83.70
2022-11-30T08:29:22.355Z,83.00
2022-11-30T08:30:26.437Z,80.30
2022-11-30T08:31:23.400Z,84.70
2022-11-30T08:32:22.326Z,78.30
2022-11-30T08:33:22.330Z,77.40
2022-11-30T08:34:22.318Z,76.80
2022-11-30T08:35:22.297Z,80.10
2022-11-30T08:36:22.286Z,82.10
2022-11-30T08:37:22.266Z,82.60
2022-11-30T08:38:22.278Z,78.40
2022-11-30T08:39:22.248Z,72.30
2022-11-30T08:40:22.273Z,77.50
2022-11-30T08:41:22.248Z,75.00
2022-11-30T08:42:22.216Z,75.70
2022-11-30T08:43:22.228Z,74.30
2022-11-30T08:44:22.209Z,72.40
2022-11-30T08:45:22.180Z,73.80
2022-11-30T08:46:49.872Z,70.20
2022-11-30T08:47:23.255Z,70.90
2022-11-30T08:48:22.168Z,63.30
2022-11-30T08:49:23.748Z,69.60
2022-11-30T08:50:22.140Z,67.60
2022-11-30T08:51:22.126Z,69.30
2022-11-30T08:52:22.116Z,67.40
2022-11-30T08:53:22.113Z,68.20
2022-11-30T08:54:22.099Z,63.10
2022-11-30T08:55:22.109Z,65.10
2022-11-30T08:56:22.074Z,60.60
2022-11-30T08:57:22.051Z,59.30
2022-11-30T08:58:22.169Z,56.80
2022-11-30T08:59:22.030Z,58.00
2022-11-30T09:00:22.053Z,55.10
2022-11-30T09:01:22.009Z,58.90
2022-11-30T09:02:22.077Z,57.20
2022-11-30T09:03:22.000Z,62.10
2022-11-30T09:04:22.001Z,58.10
2022-11-30T09:05:21.971Z,53.90
2022-11-30T09:06:21.962Z,53.10
2022-11-30T09:07:22.009Z,57.40
2022-11-30T09:08:21.963Z,56.80
2022-11-30T09:09:21.952Z,59.10
2022-11-30T09:10:22.009Z,52.60
2022-11-30T09:11:21.924Z,59.00
2022-11-30T09:12:21.893Z,57.60
2022-11-30T09:13:21.902Z,54.60
2022-11-30T09:14:21.886Z,54.90
2022-11-30T09:15:21.863Z,56.20
2022-11-30T09:16:21.996Z,56.40
2022-11-30T09:17:21.871Z,55.10
2022-11-30T09:18:21.913Z,54.80
2022-11-30T09:19:21.823Z,57.10
2022-11-30T09:20:21.813Z,58.30
2022-11-30T09:21:21.793Z,58.80
2022-11-30T09:22:21.826Z,59.80
2022-11-30T09:23:21.779Z,59.10
2022-11-30T09:24:21.775Z,57.00
2022-11-30T09:25:21.776Z,55.40
2022-11-30T09:26:21.804Z,59.70
2022-11-30T09:27:21.763Z,61.60
2022-11-30T09:28:21.735Z,56.10
2022-11-30T09:29:21.716Z,59.50
2022-11-30T09:30:21.707Z,57.10
2022-11-30T09:31:21.696Z,57.30
2022-11-30T09:32:21.683Z,55.90
2022-11-30T09:33:21.678Z,56.70
2022-11-30T09:34:21.681Z,60.10
2022-11-30T09:35:21.656Z,62.50
2022-11-30T09:36:21.636Z,57.30
2022-11-30T09:37:21.627Z,58.60
2022-11-30T09:38:21.617Z,58.10
2022-11-30T09:39:21.616Z,60.10
2022-11-30T09:40:21.596Z,59.70
2022-11-30T09:41:21.580Z,59.70
2022-11-30T09:42:21.575Z,54.80
2022-11-30T09:43:21.559Z,59.30
2022-11-30T09:44:21.568Z,57.30
2022-11-30T09:45:21.537Z,57.80
2022-11-30T09:46:21.570Z,62.70
2022-11-30T09:47:21.518Z,57.80
2022-11-30T09:48:21.507Z,58.90
2022-11-30T09:49:21.508Z,58.50
2022-11-30T09:50:21.510Z,59.30
2022-11-30T09:51:21.477Z,56.80
2022-11-30T09:52:21.478Z,59.00
2022-11-30T09:53:27.642Z,59.90
2022-11-30T09:54:22.496Z,59.30
2022-11-30T09:55:21.429Z,58.80
2022-11-30T09:56:21.469Z,56.10
2022-11-30T09:57:21.408Z,61.40
2022-11-30T09:58:21.409Z,59.90
2022-11-30T09:59:21.449Z,60.30
2022-11-30T10:00:21.381Z,59.60
2022-11-30T10:01:21.909Z,60.30
2022-11-30T10:02:21.499Z,65.00
2022-11-30T10:03:21.390Z,62.00
2022-11-30T10:04:21.351Z,62.40
2022-11-30T10:05:21.321Z,72.20
2022-11-30T10:06:21.314Z,64.50
2022-11-30T10:07:21.372Z,62.60
2022-11-30T10:08:21.315Z,64.80
2022-11-30T10:09:21.281Z,65.30
2022-11-30T10:10:32.366Z,62.30
2022-11-30T10:11:22.252Z,63.10
2022-11-30T10:12:21.251Z,60.60
2022-11-30T10:13:21.243Z,60.90
2022-11-30T10:14:21.252Z,66.90
2022-11-30T10:15:21.212Z,63.90
2022-11-30T10:16:21.247Z,63.40
2022-11-30T10:17:21.231Z,64.50
2022-11-30T10:18:21.182Z,64.50
2022-11-30T10:19:21.200Z,65.90
2022-11-30T10:20:21.162Z,61.60
2022-11-30T10:21:21.144Z,62.40
2022-11-30T10:22:21.154Z,64.00
2022-11-30T10:23:21.131Z,63.50
2022-11-30T10:24:21.133Z,66.30
2022-11-30T10:25:21.132Z,65.70
2022-11-30T10:26:21.518Z,66.80
2022-11-30T10:27:21.089Z,60.30
2022-11-30T10:29:22.075Z,65.80
2022-11-30T10:30:21.071Z,66.60
2022-11-30T10:31:21.097Z,66.80
2022-11-30T10:32:21.041Z,70.50
2022-11-30T10:33:21.023Z,69.10
2022-11-30T10:34:21.054Z,71.10
2022-11-30T10:35:21.004Z,72.30
2022-11-30T10:36:20.997Z,73.10
2022-11-30T10:37:20.998Z,75.20
2022-11-30T10:38:20.976Z,73.30
2022-11-30T10:39:20.977Z,70.90
2022-11-30T10:40:20.982Z,71.50
2022-11-30T10:41:21.003Z,70.80
2022-11-30T10:42:20.926Z,70.60
2022-11-30T10:43:20.916Z,68.30
2022-11-30T10:44:20.936Z,72.40
2022-11-30T10:45:20.896Z,69.60
2022-11-30T10:46:20.924Z,70.90
2022-11-30T10:47:20.877Z,71.00
2022-11-30T10:48:20.868Z,71.90
2022-11-30T10:49:20.855Z,70.30
2022-11-30T10:50:20.865Z,74.30
2022-11-30T10:51:20.830Z,70.50
2022-11-30T10:52:20.836Z,73.40
2022-11-30T10:53:20.929Z,68.90
2022-11-30T10:54:20.806Z,69.30
2022-11-30T10:55:20.801Z,74.30
2022-11-30T10:56:20.790Z,70.00
2022-11-30T10:57:20.760Z,73.10
2022-11-30T10:58:20.757Z,69.40
2022-11-30T10:59:20.767Z,67.90
2022-11-30T11:00:20.749Z,71.90
2022-11-30T11:01:20.758Z,77.00
2022-11-30T11:02:20.780Z,71.10
2022-11-30T11:03:20.701Z,67.80
2022-11-30T11:04:20.775Z,72.60
2022-11-30T11:05:20.681Z,71.60
2022-11-30T11:06:20.684Z,70.50
2022-11-30T11:07:20.731Z,74.60
2022-11-30T11:08:20.690Z,72.40
2022-11-30T11:09:20.630Z,72.40
2022-11-30T11:10:20.648Z,73.40
2022-11-30T11:11:20.612Z,70.90
2022-11-30T11:12:20.840Z,73.20
2022-11-30T11:13:20.597Z,72.40
2022-11-30T11:14:20.589Z,71.40
2022-11-30T11:15:20.584Z,74.00
2022-11-30T11:16:20.665Z,71.30
2022-11-30T11:17:20.552Z,71.90
2022-11-30T11:18:20.542Z,72.50
2022-11-30T11:19:20.537Z,68.50
2022-11-30T11:20:20.532Z,68.20
2022-11-30T11:21:20.503Z,70.50
2022-11-30T11:22:20.531Z,73.30
2022-11-30T11:23:20.492Z,73.60
2022-11-30T11:24:20.511Z,72.10
2022-11-30T11:25:20.484Z,75.10
2022-11-30T11:26:20.485Z,73.60
2022-11-30T11:27:20.454Z,70.70
2022-11-30T11:28:20.461Z,72.80
2022-11-30T11:29:20.421Z,76.40
2022-11-30T11:30:20.428Z,74.80
2022-11-30T11:31:20.430Z,75.10
2022-11-30T11:32:20.398Z,74.80
2022-11-30T11:33:20.380Z,79.50
2022-11-30T11:34:20.383Z,79.80
2022-11-30T11:35:20.383Z,82.00
2022-11-30T11:36:20.390Z,77.00
2022-11-30T11:37:20.338Z,79.00
2022-11-30T11:38:20.324Z,80.80
2022-11-30T11:39:20.330Z,80.90
2022-11-30T11:40:20.316Z,75.30
2022-11-30T11:41:20.310Z,78.00
2022-11-30T11:42:22.102Z,81.20
2022-11-30T11:43:20.421Z,82.70
2022-11-30T11:44:20.274Z,79.50
2022-11-30T11:45:20.255Z,73.90
2022-11-30T11:46:20.305Z,78.90
2022-11-30T11:47:20.236Z,78.50
2022-11-30T11:48:23.573Z,78.80
2022-11-30T11:49:21.237Z,76.60
2022-11-30T11:50:31.817Z,78.10
2022-11-30T11:51:21.186Z,79.40
2022-11-30T11:52:20.271Z,76.80
2022-11-30T11:53:20.237Z,80.00
2022-11-30T11:54:20.180Z,84.70
2022-11-30T11:55:20.154Z,77.40
2022-11-30T11:56:20.129Z,78.10
2022-11-30T11:57:20.116Z,82.90
2022-11-30T11:58:20.120Z,81.60
2022-11-30T11:59:20.215Z,78.60
2022-11-30T12:00:20.097Z,78.10
2022-11-30T12:02:21.159Z,76.20
2022-11-30T12:03:20.057Z,77.50
2022-11-30T12:04:20.099Z,78.60
2022-11-30T12:05:20.049Z,81.70
2022-11-30T12:06:20.022Z,84.70
2022-11-30T12:07:20.191Z,77.90
2022-11-30T12:08:20.002Z,80.90
2022-11-30T12:09:20.164Z,79.30
2022-11-30T12:10:50.580Z,77.60
2022-11-30T12:11:20.969Z,78.80
2022-11-30T12:12:19.993Z,77.70
2022-11-30T12:13:19.952Z,83.90
2022-11-30T12:14:19.938Z,82.60
2022-11-30T12:15:19.959Z,81.80
2022-11-30T12:16:20.044Z,83.40
2022-11-30T12:17:19.935Z,83.40
2022-11-30T12:18:24.075Z,80.40
2022-11-30T12:19:19.882Z,80.70
2022-11-30T12:20:19.895Z,83.40
2022-11-30T12:21:19.883Z,86.00
2022-11-30T12:22:19.861Z,85.70
2022-11-30T12:23:19.850Z,84.20
2022-11-30T12:24:19.832Z,81.80
2022-11-30T12:25:19.840Z,84.80
2022-11-30T12:26:19.824Z,87.50
2022-11-30T12:27:19.802Z,80.50
2022-11-30T12:28:19.788Z,88.40
2022-11-30T12:29:19.782Z,86.60
2022-11-30T12:30:19.771Z,90.50
2022-11-30T12:31:19.820Z,88.30
2022-11-30T12:32:19.741Z,86.00
2022-11-30T12:33:19.730Z,86.80
2022-11-30T12:34:19.722Z,87.10
2022-11-30T12:35:19.714Z,85.20
2022-11-30T12:36:19.703Z,82.40
2022-11-30T12:37:19.691Z,88.00
2022-11-30T12:38:19.672Z,84.70
2022-11-30T12:39:19.680Z,82.70
2022-11-30T12:40:19.654Z,84.70
2022-11-30T12:41:19.665Z,82.00